sensor_id;sensor_type;location;lat;lon;timestamp;P1;P2;P0
74078;PMS5003;62437;51.544;-3.276;2022-10-18T00:01:12;6;5;
74078;PMS5003;62437;51.544;-3.276;2022-10-18T00:03:38;8;7;
74078;PMS5003;62437;51.544;-3.276;2022-10-18T00:06:04;10;10;
74078;PMS5003;62437;51.544;-3.276;2022-10-18T00:08:30;8;7;
74078;PMS5003;62437;51.544;-3.276;2022-10-18T00:10:56;10;6;
74078;PMS5003;62437;51.544;-3.276;2022-10-18T00:13:21;8;8;
74078;PMS5003;62437;51.544;-3.276;2022-10-18T00:15:47;10;9;
74078;PMS5003;62437;51.544;-3.276;2022-10-18T00:18:12;12;10;
74078;PMS5003;62437;51.544;-3.276;2022-10-18T00:20:38;8;8;
74078;PMS5003;62437;51.544;-3.276;2022-10-18T00:23:03;9;9;
74078;PMS5003;62437;51.544;-3.276;2022-10-18T00:25:29;9;8;
74078;PMS5003;62437;51.544;-3.276;2022-10-18T00:27:54;13;13;
74078;PMS5003;62437;51.544;-3.276;2022-10-18T00:30:20;7;7;
74078;PMS5003;62437;51.544;-3.276;2022-10-18T00:32:46;11;9;
74078;PMS5003;62437;51.544;-3.276;2022-10-18T00:35:11;10;10;
74078;PMS5003;62437;51.544;-3.276;2022-10-18T00:37:37;8;8;
74078;PMS5003;62437;51.544;-3.276;2022-10-18T00:40:03;12;12;
74078;PMS5003;62437;51.544;-3.276;2022-10-18T00:42:29;12;10;
74078;PMS5003;62437;51.544;-3.276;2022-10-18T00:44:59;9;8;
74078;PMS5003;62437;51.544;-3.276;2022-10-18T00:47:20;11;8;
74078;PMS5003;62437;51.544;-3.276;2022-10-18T00:49:46;12;11;
74078;PMS5003;62437;51.544;-3.276;2022-10-18T00:52:12;8;7;
74078;PMS5003;62437;51.544;-3.276;2022-10-18T00:54:38;11;11;
74078;PMS5003;62437;51.544;-3.276;2022-10-18T00:57:02;12;9;
74078;PMS5003;62437;51.544;-3.276;2022-10-18T00:59:28;9;8;
74078;PMS5003;62437;51.544;-3.276;2022-10-18T01:01:54;8;8;
74078;PMS5003;62437;51.544;-3.276;2022-10-18T01:04:19;9;7;
74078;PMS5003;62437;51.544;-3.276;2022-10-18T01:06:47;9;8;
74078;PMS5003;62437;51.544;-3.276;2022-10-18T01:09:12;8;8;
74078;PMS5003;62437;51.544;-3.276;2022-10-18T01:11:41;9;6;
74078;PMS5003;62437;51.544;-3.276;2022-10-18T01:14:07;8;7;
74078;PMS5003;62437;51.544;-3.276;2022-10-18T01:16:30;7;5;
74078;PMS5003;62437;51.544;-3.276;2022-10-18T01:18:56;5;5;
74078;PMS5003;62437;51.544;-3.276;2022-10-18T01:21:24;8;8;
74078;PMS5003;62437;51.544;-3.276;2022-10-18T01:26:15;7;7;
74078;PMS5003;62437;51.544;-3.276;2022-10-18T01:28:41;9;7;
74078;PMS5003;62437;51.544;-3.276;2022-10-18T01:31:02;7;6;
74078;PMS5003;62437;51.544;-3.276;2022-10-18T01:33:30;9;9;
74078;PMS5003;62437;51.544;-3.276;2022-10-18T01:35:55;8;7;
74078;PMS5003;62437;51.544;-3.276;2022-10-18T01:38:19;11;9;
74078;PMS5003;62437;51.544;-3.276;2022-10-18T01:40:46;7;7;
74078;PMS5003;62437;51.544;-3.276;2022-10-18T01:43:10;13;9;
74078;PMS5003;62437;51.544;-3.276;2022-10-18T01:45:36;7;7;
74078;PMS5003;62437;51.544;-3.276;2022-10-18T01:48:02;8;7;
74078;PMS5003;62437;51.544;-3.276;2022-10-18T01:50:28;8;8;
74078;PMS5003;62437;51.544;-3.276;2022-10-18T01:52:53;7;7;
74078;PMS5003;62437;51.544;-3.276;2022-10-18T01:55:19;7;6;
74078;PMS5003;62437;51.544;-3.276;2022-10-18T01:57:57;11;9;
74078;PMS5003;62437;51.544;-3.276;2022-10-18T02:00:11;6;6;
74078;PMS5003;62437;51.544;-3.276;2022-10-18T02:02:39;9;9;
74078;PMS5003;62437;51.544;-3.276;2022-10-18T02:05:04;8;8;
74078;PMS5003;62437;51.544;-3.276;2022-10-18T02:07:29;8;7;
74078;PMS5003;62437;51.544;-3.276;2022-10-18T02:09:57;10;7;
74078;PMS5003;62437;51.544;-3.276;2022-10-18T02:12:19;6;6;
74078;PMS5003;62437;51.544;-3.276;2022-10-18T02:14:45;6;6;
74078;PMS5003;62437;51.544;-3.276;2022-10-18T02:17:11;7;7;
74078;PMS5003;62437;51.544;-3.276;2022-10-18T02:19:37;9;8;
74078;PMS5003;62437;51.544;-3.276;2022-10-18T02:22:02;12;12;
74078;PMS5003;62437;51.544;-3.276;2022-10-18T02:24:29;6;6;
74078;PMS5003;62437;51.544;-3.276;2022-10-18T02:26:53;11;11;
74078;PMS5003;62437;51.544;-3.276;2022-10-18T02:29:20;10;10;
74078;PMS5003;62437;51.544;-3.276;2022-10-18T02:31:46;6;6;
74078;PMS5003;62437;51.544;-3.276;2022-10-18T02:34:13;5;5;
74078;PMS5003;62437;51.544;-3.276;2022-10-18T02:36:37;5;5;
74078;PMS5003;62437;51.544;-3.276;2022-10-18T02:39:03;6;6;
74078;PMS5003;62437;51.544;-3.276;2022-10-18T02:41:29;6;6;
74078;PMS5003;62437;51.544;-3.276;2022-10-18T02:43:54;6;6;
74078;PMS5003;62437;51.544;-3.276;2022-10-18T02:46:20;6;6;
74078;PMS5003;62437;51.544;-3.276;2022-10-18T02:48:45;8;7;
74078;PMS5003;62437;51.544;-3.276;2022-10-18T02:51:11;7;7;
74078;PMS5003;62437;51.544;-3.276;2022-10-18T02:53:37;7;6;
74078;PMS5003;62437;51.544;-3.276;2022-10-18T02:56:02;5;5;
74078;PMS5003;62437;51.544;-3.276;2022-10-18T02:58:28;6;6;
74078;PMS5003;62437;51.544;-3.276;2022-10-18T03:00:54;7;7;
74078;PMS5003;62437;51.544;-3.276;2022-10-18T03:03:19;7;6;
74078;PMS5003;62437;51.544;-3.276;2022-10-18T03:05:47;8;6;
74078;PMS5003;62437;51.544;-3.276;2022-10-18T03:08:10;11;8;
74078;PMS5003;62437;51.544;-3.276;2022-10-18T03:10:36;5;5;
74078;PMS5003;62437;51.544;-3.276;2022-10-18T03:13:02;8;7;
74078;PMS5003;62437;51.544;-3.276;2022-10-18T03:15:28;7;6;
74078;PMS5003;62437;51.544;-3.276;2022-10-18T03:17:53;6;6;
74078;PMS5003;62437;51.544;-3.276;2022-10-18T03:20:19;6;6;
74078;PMS5003;62437;51.544;-3.276;2022-10-18T03:22:44;10;10;
74078;PMS5003;62437;51.544;-3.276;2022-10-18T03:25:10;7;6;
74078;PMS5003;62437;51.544;-3.276;2022-10-18T03:27:36;8;7;
74078;PMS5003;62437;51.544;-3.276;2022-10-18T03:30:02;6;5;
74078;PMS5003;62437;51.544;-3.276;2022-10-18T03:32:27;7;6;
74078;PMS5003;62437;51.544;-3.276;2022-10-18T03:34:53;10;6;
74078;PMS5003;62437;51.544;-3.276;2022-10-18T03:37:18;6;5;
74078;PMS5003;62437;51.544;-3.276;2022-10-18T03:39:44;8;7;
74078;PMS5003;62437;51.544;-3.276;2022-10-18T03:42:10;5;5;
74078;PMS5003;62437;51.544;-3.276;2022-10-18T03:44:36;6;6;
74078;PMS5003;62437;51.544;-3.276;2022-10-18T03:47:01;7;7;
74078;PMS5003;62437;51.544;-3.276;2022-10-18T03:49:27;7;6;
74078;PMS5003;62437;51.544;-3.276;2022-10-18T03:51:53;7;6;
74078;PMS5003;62437;51.544;-3.276;2022-10-18T03:54:22;6;6;
74078;PMS5003;62437;51.544;-3.276;2022-10-18T03:56:44;5;4;
74078;PMS5003;62437;51.544;-3.276;2022-10-18T03:59:10;7;6;
74078;PMS5003;62437;51.544;-3.276;2022-10-18T04:01:36;5;5;
74078;PMS5003;62437;51.544;-3.276;2022-10-18T04:04:02;8;8;
74078;PMS5003;62437;51.544;-3.276;2022-10-18T04:06:28;5;4;
74078;PMS5003;62437;51.544;-3.276;2022-10-18T04:08:53;5;5;
74078;PMS5003;62437;51.544;-3.276;2022-10-18T04:11:19;6;6;
74078;PMS5003;62437;51.544;-3.276;2022-10-18T04:13:45;9;7;
74078;PMS5003;62437;51.544;-3.276;2022-10-18T04:16:11;6;6;
74078;PMS5003;62437;51.544;-3.276;2022-10-18T04:18:36;6;5;
74078;PMS5003;62437;51.544;-3.276;2022-10-18T04:21:02;8;7;
74078;PMS5003;62437;51.544;-3.276;2022-10-18T04:23:28;6;6;
74078;PMS5003;62437;51.544;-3.276;2022-10-18T04:25:54;5;4;
74078;PMS5003;62437;51.544;-3.276;2022-10-18T04:28:19;5;5;
74078;PMS5003;62437;51.544;-3.276;2022-10-18T04:30:49;3;3;
74078;PMS5003;62437;51.544;-3.276;2022-10-18T04:33:11;7;5;
74078;PMS5003;62437;51.544;-3.276;2022-10-18T04:35:37;6;5;
74078;PMS5003;62437;51.544;-3.276;2022-10-18T04:38:03;6;6;
74078;PMS5003;62437;51.544;-3.276;2022-10-18T04:40:28;5;5;
74078;PMS5003;62437;51.544;-3.276;2022-10-18T04:42:54;5;5;
74078;PMS5003;62437;51.544;-3.276;2022-10-18T04:45:20;5;5;
74078;PMS5003;62437;51.544;-3.276;2022-10-18T04:47:45;9;6;
74078;PMS5003;62437;51.544;-3.276;2022-10-18T04:50:11;3;3;
74078;PMS5003;62437;51.544;-3.276;2022-10-18T04:52:37;7;6;
74078;PMS5003;62437;51.544;-3.276;2022-10-18T04:55:06;5;5;
74078;PMS5003;62437;51.544;-3.276;2022-10-18T04:57:28;5;5;
74078;PMS5003;62437;51.544;-3.276;2022-10-18T04:59:54;4;4;
74078;PMS5003;62437;51.544;-3.276;2022-10-18T05:02:20;4;4;
74078;PMS5003;62437;51.544;-3.276;2022-10-18T05:04:46;5;4;
74078;PMS5003;62437;51.544;-3.276;2022-10-18T05:07:12;6;5;
74078;PMS5003;62437;51.544;-3.276;2022-10-18T05:09:37;5;5;
74078;PMS5003;62437;51.544;-3.276;2022-10-18T05:12:03;5;4;
74078;PMS5003;62437;51.544;-3.276;2022-10-18T05:14:29;5;5;
74078;PMS5003;62437;51.544;-3.276;2022-10-18T05:16:55;4;4;
74078;PMS5003;62437;51.544;-3.276;2022-10-18T05:19:20;7;6;
74078;PMS5003;62437;51.544;-3.276;2022-10-18T05:21:46;6;5;
74078;PMS5003;62437;51.544;-3.276;2022-10-18T05:24:12;5;5;
74078;PMS5003;62437;51.544;-3.276;2022-10-18T05:26:37;4;4;
74078;PMS5003;62437;51.544;-3.276;2022-10-18T05:29:03;4;4;
74078;PMS5003;62437;51.544;-3.276;2022-10-18T05:31:29;5;4;
74078;PMS5003;62437;51.544;-3.276;2022-10-18T05:33:55;4;4;
74078;PMS5003;62437;51.544;-3.276;2022-10-18T05:36:20;5;4;
74078;PMS5003;62437;51.544;-3.276;2022-10-18T05:38:46;5;4;
74078;PMS5003;62437;51.544;-3.276;2022-10-18T05:41:12;3;3;
74078;PMS5003;62437;51.544;-3.276;2022-10-18T05:43:38;2;2;
74078;PMS5003;62437;51.544;-3.276;2022-10-18T05:46:03;5;4;
74078;PMS5003;62437;51.544;-3.276;2022-10-18T05:48:29;3;3;
74078;PMS5003;62437;51.544;-3.276;2022-10-18T05:50:56;4;4;
74078;PMS5003;62437;51.544;-3.276;2022-10-18T05:53:21;4;3;
74078;PMS5003;62437;51.544;-3.276;2022-10-18T05:55:46;4;4;
74078;PMS5003;62437;51.544;-3.276;2022-10-18T05:58:12;5;4;
74078;PMS5003;62437;51.544;-3.276;2022-10-18T06:00:38;4;4;
74078;PMS5003;62437;51.544;-3.276;2022-10-18T06:03:04;4;4;
74078;PMS5003;62437;51.544;-3.276;2022-10-18T06:05:29;4;3;
74078;PMS5003;62437;51.544;-3.276;2022-10-18T06:07:55;4;4;
74078;PMS5003;62437;51.544;-3.276;2022-10-18T06:10:21;5;4;
74078;PMS5003;62437;51.544;-3.276;2022-10-18T06:12:47;3;3;
74078;PMS5003;62437;51.544;-3.276;2022-10-18T06:15:12;6;4;
74078;PMS5003;62437;51.544;-3.276;2022-10-18T06:17:38;3;3;
74078;PMS5003;62437;51.544;-3.276;2022-10-18T06:20:05;4;3;
74078;PMS5003;62437;51.544;-3.276;2022-10-18T06:22:30;4;4;
74078;PMS5003;62437;51.544;-3.276;2022-10-18T06:24:55;3;3;
74078;PMS5003;62437;51.544;-3.276;2022-10-18T06:27:21;4;4;
74078;PMS5003;62437;51.544;-3.276;2022-10-18T06:29:46;6;5;
74078;PMS5003;62437;51.544;-3.276;2022-10-18T06:32:13;6;5;
74078;PMS5003;62437;51.544;-3.276;2022-10-18T06:34:38;4;4;
74078;PMS5003;62437;51.544;-3.276;2022-10-18T06:37:03;2;2;
74078;PMS5003;62437;51.544;-3.276;2022-10-18T06:39:29;5;5;
74078;PMS5003;62437;51.544;-3.276;2022-10-18T06:41:55;4;4;
74078;PMS5003;62437;51.544;-3.276;2022-10-18T06:44:21;3;3;
74078;PMS5003;62437;51.544;-3.276;2022-10-18T06:46:47;3;3;
74078;PMS5003;62437;51.544;-3.276;2022-10-18T06:49:14;6;5;
74078;PMS5003;62437;51.544;-3.276;2022-10-18T06:51:38;5;4;
74078;PMS5003;62437;51.544;-3.276;2022-10-18T06:54:04;6;5;
74078;PMS5003;62437;51.544;-3.276;2022-10-18T06:56:30;12;10;
74078;PMS5003;62437;51.544;-3.276;2022-10-18T06:58:55;10;7;
74078;PMS5003;62437;51.544;-3.276;2022-10-18T07:01:21;6;6;
74078;PMS5003;62437;51.544;-3.276;2022-10-18T07:03:47;7;7;
74078;PMS5003;62437;51.544;-3.276;2022-10-18T07:06:13;9;9;
74078;PMS5003;62437;51.544;-3.276;2022-10-18T07:08:38;7;7;
74078;PMS5003;62437;51.544;-3.276;2022-10-18T07:11:04;10;10;
74078;PMS5003;62437;51.544;-3.276;2022-10-18T07:13:29;11;9;
74078;PMS5003;62437;51.544;-3.276;2022-10-18T07:16:01;9;9;
74078;PMS5003;62437;51.544;-3.276;2022-10-18T07:18:20;10;9;
74078;PMS5003;62437;51.544;-3.276;2022-10-18T07:20:46;3;3;
74078;PMS5003;62437;51.544;-3.276;2022-10-18T07:23:12;9;9;
74078;PMS5003;62437;51.544;-3.276;2022-10-18T07:25:38;7;7;
74078;PMS5003;62437;51.544;-3.276;2022-10-18T07:28:03;9;9;
74078;PMS5003;62437;51.544;-3.276;2022-10-18T07:30:29;9;7;
74078;PMS5003;62437;51.544;-3.276;2022-10-18T07:32:55;9;9;
74078;PMS5003;62437;51.544;-3.276;2022-10-18T07:35:21;12;12;
74078;PMS5003;62437;51.544;-3.276;2022-10-18T07:37:47;16;16;
74078;PMS5003;62437;51.544;-3.276;2022-10-18T07:40:12;13;12;
74078;PMS5003;62437;51.544;-3.276;2022-10-18T07:42:37;14;13;
74078;PMS5003;62437;51.544;-3.276;2022-10-18T07:45:04;8;8;
74078;PMS5003;62437;51.544;-3.276;2022-10-18T07:47:29;10;9;
74078;PMS5003;62437;51.544;-3.276;2022-10-18T07:49:55;11;9;
74078;PMS5003;62437;51.544;-3.276;2022-10-18T07:52:20;10;10;
74078;PMS5003;62437;51.544;-3.276;2022-10-18T07:54:46;12;11;
74078;PMS5003;62437;51.544;-3.276;2022-10-18T07:57:12;10;10;
74078;PMS5003;62437;51.544;-3.276;2022-10-18T07:59:37;11;11;
74078;PMS5003;62437;51.544;-3.276;2022-10-18T08:02:03;10;7;
74078;PMS5003;62437;51.544;-3.276;2022-10-18T08:04:29;11;8;
74078;PMS5003;62437;51.544;-3.276;2022-10-18T08:06:54;10;10;
74078;PMS5003;62437;51.544;-3.276;2022-10-18T08:09:20;12;12;
74078;PMS5003;62437;51.544;-3.276;2022-10-18T08:11:46;11;11;
74078;PMS5003;62437;51.544;-3.276;2022-10-18T08:14:12;6;5;
74078;PMS5003;62437;51.544;-3.276;2022-10-18T08:16:37;13;13;
74078;PMS5003;62437;51.544;-3.276;2022-10-18T08:19:02;13;12;
74078;PMS5003;62437;51.544;-3.276;2022-10-18T08:21:28;11;10;
74078;PMS5003;62437;51.544;-3.276;2022-10-18T08:23:54;8;7;
74078;PMS5003;62437;51.544;-3.276;2022-10-18T08:26:20;14;12;
74078;PMS5003;62437;51.544;-3.276;2022-10-18T08:28:45;12;12;
74078;PMS5003;62437;51.544;-3.276;2022-10-18T08:31:11;6;6;
74078;PMS5003;62437;51.544;-3.276;2022-10-18T08:33:36;7;7;
74078;PMS5003;62437;51.544;-3.276;2022-10-18T08:36:02;7;7;
74078;PMS5003;62437;51.544;-3.276;2022-10-18T08:38:28;7;6;
74078;PMS5003;62437;51.544;-3.276;2022-10-18T08:40:54;14;13;
74078;PMS5003;62437;51.544;-3.276;2022-10-18T08:43:23;12;11;
74078;PMS5003;62437;51.544;-3.276;2022-10-18T08:45:44;12;11;
74078;PMS5003;62437;51.544;-3.276;2022-10-18T08:48:15;15;14;
74078;PMS5003;62437;51.544;-3.276;2022-10-18T08:50:35;13;11;
74078;PMS5003;62437;51.544;-3.276;2022-10-18T08:53:02;6;5;
74078;PMS5003;62437;51.544;-3.276;2022-10-18T08:55:27;11;9;
74078;PMS5003;62437;51.544;-3.276;2022-10-18T08:57:52;9;8;
74078;PMS5003;62437;51.544;-3.276;2022-10-18T09:00:19;10;10;
74078;PMS5003;62437;51.544;-3.276;2022-10-18T09:02:48;9;8;
74078;PMS5003;62437;51.544;-3.276;2022-10-18T09:05:15;13;13;
74078;PMS5003;62437;51.544;-3.276;2022-10-18T09:07:40;9;9;
74078;PMS5003;62437;51.544;-3.276;2022-10-18T09:10:02;17;16;
74078;PMS5003;62437;51.544;-3.276;2022-10-18T09:12:32;10;8;
74078;PMS5003;62437;51.544;-3.276;2022-10-18T09:14:58;8;7;
74078;PMS5003;62437;51.544;-3.276;2022-10-18T09:17:22;10;8;
74078;PMS5003;62437;51.544;-3.276;2022-10-18T09:19:46;9;9;
74078;PMS5003;62437;51.544;-3.276;2022-10-18T09:22:10;7;7;
74078;PMS5003;62437;51.544;-3.276;2022-10-18T09:24:36;16;16;
74078;PMS5003;62437;51.544;-3.276;2022-10-18T09:27:00;7;7;
74078;PMS5003;62437;51.544;-3.276;2022-10-18T09:29:29;19;16;
74078;PMS5003;62437;51.544;-3.276;2022-10-18T09:31:51;20;19;
74078;PMS5003;62437;51.544;-3.276;2022-10-18T09:34:18;15;11;
74078;PMS5003;62437;51.544;-3.276;2022-10-18T09:36:41;20;20;
74078;PMS5003;62437;51.544;-3.276;2022-10-18T09:39:08;11;11;
74078;PMS5003;62437;51.544;-3.276;2022-10-18T09:41:33;11;10;
74078;PMS5003;62437;51.544;-3.276;2022-10-18T09:43:59;8;7;
74078;PMS5003;62437;51.544;-3.276;2022-10-18T09:46:24;6;6;
74078;PMS5003;62437;51.544;-3.276;2022-10-18T09:48:50;8;8;
74078;PMS5003;62437;51.544;-3.276;2022-10-18T09:51:15;11;6;
74078;PMS5003;62437;51.544;-3.276;2022-10-18T09:53:41;6;6;
74078;PMS5003;62437;51.544;-3.276;2022-10-18T09:56:08;6;5;
74078;PMS5003;62437;51.544;-3.276;2022-10-18T09:58:37;11;9;
74078;PMS5003;62437;51.544;-3.276;2022-10-18T10:00:58;5;5;
74078;PMS5003;62437;51.544;-3.276;2022-10-18T10:03:24;5;5;
74078;PMS5003;62437;51.544;-3.276;2022-10-18T10:08:15;5;4;
74078;PMS5003;62437;51.544;-3.276;2022-10-18T10:10:44;2;2;
74078;PMS5003;62437;51.544;-3.276;2022-10-18T10:13:12;3;3;
74078;PMS5003;62437;51.544;-3.276;2022-10-18T10:15:32;7;5;
74078;PMS5003;62437;51.544;-3.276;2022-10-18T10:17:58;5;4;
74078;PMS5003;62437;51.544;-3.276;2022-10-18T10:20:24;3;3;
74078;PMS5003;62437;51.544;-3.276;2022-10-18T10:22:49;6;5;
74078;PMS5003;62437;51.544;-3.276;2022-10-18T10:25:19;4;4;
74078;PMS5003;62437;51.544;-3.276;2022-10-18T10:27:42;5;2;
74078;PMS5003;62437;51.544;-3.276;2022-10-18T10:32:43;3;3;
74078;PMS5003;62437;51.544;-3.276;2022-10-18T10:34:57;4;2;
74078;PMS5003;62437;51.544;-3.276;2022-10-18T10:37:24;5;4;
74078;PMS5003;62437;51.544;-3.276;2022-10-18T10:42:14;2;2;
74078;PMS5003;62437;51.544;-3.276;2022-10-18T10:44:39;3;2;
74078;PMS5003;62437;51.544;-3.276;2022-10-18T10:47:05;2;2;
74078;PMS5003;62437;51.544;-3.276;2022-10-18T10:49:38;3;3;
74078;PMS5003;62437;51.544;-3.276;2022-10-18T10:51:57;3;3;
74078;PMS5003;62437;51.544;-3.276;2022-10-18T10:54:23;3;2;
74078;PMS5003;62437;51.544;-3.276;2022-10-18T10:56:50;2;2;
74078;PMS5003;62437;51.544;-3.276;2022-10-18T10:59:14;3;2;
74078;PMS5003;62437;51.544;-3.276;2022-10-18T11:01:39;5;5;
74078;PMS5003;62437;51.544;-3.276;2022-10-18T11:06:36;4;2;
74078;PMS5003;62437;51.544;-3.276;2022-10-18T11:08:56;2;1;
74078;PMS5003;62437;51.544;-3.276;2022-10-18T11:11:22;3;3;
74078;PMS5003;62437;51.544;-3.276;2022-10-18T11:13:48;4;4;
74078;PMS5003;62437;51.544;-3.276;2022-10-18T11:16:14;2;2;
74078;PMS5003;62437;51.544;-3.276;2022-10-18T11:18:39;4;3;
74078;PMS5003;62437;51.544;-3.276;2022-10-18T11:21:05;2;2;
74078;PMS5003;62437;51.544;-3.276;2022-10-18T11:23:30;1;1;
74078;PMS5003;62437;51.544;-3.276;2022-10-18T11:25:59;1;1;
74078;PMS5003;62437;51.544;-3.276;2022-10-18T11:28:25;3;3;
74078;PMS5003;62437;51.544;-3.276;2022-10-18T11:30:52;3;3;
74078;PMS5003;62437;51.544;-3.276;2022-10-18T11:33:16;1;1;
74078;PMS5003;62437;51.544;-3.276;2022-10-18T11:35:38;2;2;
74078;PMS5003;62437;51.544;-3.276;2022-10-18T11:38:05;3;2;
74078;PMS5003;62437;51.544;-3.276;2022-10-18T11:40:33;3;3;
74078;PMS5003;62437;51.544;-3.276;2022-10-18T11:42:55;3;2;
74078;PMS5003;62437;51.544;-3.276;2022-10-18T11:45:25;3;3;
74078;PMS5003;62437;51.544;-3.276;2022-10-18T11:47:47;2;2;
74078;PMS5003;62437;51.544;-3.276;2022-10-18T11:50:13;2;2;
74078;PMS5003;62437;51.544;-3.276;2022-10-18T11:52:39;3;3;
74078;PMS5003;62437;51.544;-3.276;2022-10-18T11:57:31;4;3;
74078;PMS5003;62437;51.544;-3.276;2022-10-18T11:59:56;3;2;
74078;PMS5003;62437;51.544;-3.276;2022-10-18T12:02:29;4;2;
74078;PMS5003;62437;51.544;-3.276;2022-10-18T12:04:46;4;3;
74078;PMS5003;62437;51.544;-3.276;2022-10-18T12:07:11;2;2;
74078;PMS5003;62437;51.544;-3.276;2022-10-18T12:09:38;2;2;
74078;PMS5003;62437;51.544;-3.276;2022-10-18T12:12:05;3;2;
74078;PMS5003;62437;51.544;-3.276;2022-10-18T12:14:28;3;2;
74078;PMS5003;62437;51.544;-3.276;2022-10-18T12:16:53;4;3;
74078;PMS5003;62437;51.544;-3.276;2022-10-18T12:19:20;3;3;
74078;PMS5003;62437;51.544;-3.276;2022-10-18T12:21:45;2;2;
74078;PMS5003;62437;51.544;-3.276;2022-10-18T12:24:11;3;3;
74078;PMS5003;62437;51.544;-3.276;2022-10-18T12:26:36;6;5;
74078;PMS5003;62437;51.544;-3.276;2022-10-18T12:29:06;3;3;
74078;PMS5003;62437;51.544;-3.276;2022-10-18T12:31:28;6;5;
74078;PMS5003;62437;51.544;-3.276;2022-10-18T12:33:54;3;3;
74078;PMS5003;62437;51.544;-3.276;2022-10-18T12:36:25;3;3;
74078;PMS5003;62437;51.544;-3.276;2022-10-18T12:38:44;2;2;
74078;PMS5003;62437;51.544;-3.276;2022-10-18T12:41:10;1;1;
74078;PMS5003;62437;51.544;-3.276;2022-10-18T12:43:35;1;1;
74078;PMS5003;62437;51.544;-3.276;2022-10-18T12:46:02;2;2;
74078;PMS5003;62437;51.544;-3.276;2022-10-18T12:48:29;4;4;
74078;PMS5003;62437;51.544;-3.276;2022-10-18T12:50:56;4;4;
74078;PMS5003;62437;51.544;-3.276;2022-10-18T12:53:19;4;4;
74078;PMS5003;62437;51.544;-3.276;2022-10-18T12:55:44;3;3;
74078;PMS5003;62437;51.544;-3.276;2022-10-18T13:07:52;3;3;
74078;PMS5003;62437;51.544;-3.276;2022-10-18T13:12:48;4;4;
74078;PMS5003;62437;51.544;-3.276;2022-10-18T13:17:36;4;3;
74078;PMS5003;62437;51.544;-3.276;2022-10-18T13:22:30;6;5;
74078;PMS5003;62437;51.544;-3.276;2022-10-18T13:24:54;3;3;
74078;PMS5003;62437;51.544;-3.276;2022-10-18T13:27:20;3;3;
74078;PMS5003;62437;51.544;-3.276;2022-10-18T13:29:49;3;3;
74078;PMS5003;62437;51.544;-3.276;2022-10-18T13:32:14;4;4;
74078;PMS5003;62437;51.544;-3.276;2022-10-18T13:34:34;3;3;
74078;PMS5003;62437;51.544;-3.276;2022-10-18T13:37:00;5;4;
74078;PMS5003;62437;51.544;-3.276;2022-10-18T13:39:25;5;5;
74078;PMS5003;62437;51.544;-3.276;2022-10-18T13:44:23;4;4;
74078;PMS5003;62437;51.544;-3.276;2022-10-18T13:53:59;2;2;
74078;PMS5003;62437;51.544;-3.276;2022-10-18T13:56:31;4;4;
74078;PMS5003;62437;51.544;-3.276;2022-10-18T13:58:55;3;3;
74078;PMS5003;62437;51.544;-3.276;2022-10-18T14:01:18;5;5;
74078;PMS5003;62437;51.544;-3.276;2022-10-18T14:03:47;4;4;
74078;PMS5003;62437;51.544;-3.276;2022-10-18T14:06:07;4;3;
74078;PMS5003;62437;51.544;-3.276;2022-10-18T14:08:33;4;2;
74078;PMS5003;62437;51.544;-3.276;2022-10-18T14:11:00;4;3;
74078;PMS5003;62437;51.544;-3.276;2022-10-18T14:13:24;9;8;
74078;PMS5003;62437;51.544;-3.276;2022-10-18T14:15:50;3;3;
74078;PMS5003;62437;51.544;-3.276;2022-10-18T14:18:16;4;3;
74078;PMS5003;62437;51.544;-3.276;2022-10-18T14:20:41;3;3;
74078;PMS5003;62437;51.544;-3.276;2022-10-18T14:23:09;2;2;
74078;PMS5003;62437;51.544;-3.276;2022-10-18T14:25:33;4;4;
74078;PMS5003;62437;51.544;-3.276;2022-10-18T14:28:02;4;4;
74078;PMS5003;62437;51.544;-3.276;2022-10-18T14:30:23;6;6;
74078;PMS5003;62437;51.544;-3.276;2022-10-18T14:32:49;6;5;
74078;PMS5003;62437;51.544;-3.276;2022-10-18T14:35:15;4;4;
74078;PMS5003;62437;51.544;-3.276;2022-10-18T14:37:40;6;5;
74078;PMS5003;62437;51.544;-3.276;2022-10-18T14:42:31;4;4;
74078;PMS5003;62437;51.544;-3.276;2022-10-18T14:44:56;4;4;
74078;PMS5003;62437;51.544;-3.276;2022-10-18T14:47:22;7;7;
74078;PMS5003;62437;51.544;-3.276;2022-10-18T14:49:47;6;5;
74078;PMS5003;62437;51.544;-3.276;2022-10-18T14:52:14;4;4;
74078;PMS5003;62437;51.544;-3.276;2022-10-18T14:54:38;5;5;
74078;PMS5003;62437;51.544;-3.276;2022-10-18T14:57:04;5;4;
74078;PMS5003;62437;51.544;-3.276;2022-10-18T14:59:31;4;4;
74078;PMS5003;62437;51.544;-3.276;2022-10-18T15:01:56;7;7;
74078;PMS5003;62437;51.544;-3.276;2022-10-18T15:04:20;2;2;
74078;PMS5003;62437;51.544;-3.276;2022-10-18T15:06:47;3;3;
74078;PMS5003;62437;51.544;-3.276;2022-10-18T15:09:12;5;4;
74078;PMS5003;62437;51.544;-3.276;2022-10-18T15:11:37;4;4;
74078;PMS5003;62437;51.544;-3.276;2022-10-18T15:14:03;5;5;
74078;PMS5003;62437;51.544;-3.276;2022-10-18T15:16:29;3;3;
74078;PMS5003;62437;51.544;-3.276;2022-10-18T15:18:58;3;3;
74078;PMS5003;62437;51.544;-3.276;2022-10-18T15:21:20;4;2;
74078;PMS5003;62437;51.544;-3.276;2022-10-18T15:23:46;3;3;
74078;PMS5003;62437;51.544;-3.276;2022-10-18T15:26:12;5;3;
74078;PMS5003;62437;51.544;-3.276;2022-10-18T15:28:38;6;4;
74078;PMS5003;62437;51.544;-3.276;2022-10-18T15:31:02;4;4;
74078;PMS5003;62437;51.544;-3.276;2022-10-18T15:33:28;3;3;
74078;PMS5003;62437;51.544;-3.276;2022-10-18T15:35:53;9;7;
74078;PMS5003;62437;51.544;-3.276;2022-10-18T15:38:24;4;4;
74078;PMS5003;62437;51.544;-3.276;2022-10-18T15:40:45;3;3;
74078;PMS5003;62437;51.544;-3.276;2022-10-18T15:45:36;4;4;
74078;PMS5003;62437;51.544;-3.276;2022-10-18T15:48:12;3;3;
74078;PMS5003;62437;51.544;-3.276;2022-10-18T15:50:36;3;3;
74078;PMS5003;62437;51.544;-3.276;2022-10-18T15:52:53;3;3;
74078;PMS5003;62437;51.544;-3.276;2022-10-18T15:57:43;6;3;
74078;PMS5003;62437;51.544;-3.276;2022-10-18T16:00:14;6;5;
74078;PMS5003;62437;51.544;-3.276;2022-10-18T16:02:34;6;3;
74078;PMS5003;62437;51.544;-3.276;2022-10-18T16:05:00;6;5;
74078;PMS5003;62437;51.544;-3.276;2022-10-18T16:07:26;5;4;
74078;PMS5003;62437;51.544;-3.276;2022-10-18T16:09:51;4;4;
74078;PMS5003;62437;51.544;-3.276;2022-10-18T16:12:17;5;4;
74078;PMS5003;62437;51.544;-3.276;2022-10-18T16:14:43;5;5;
74078;PMS5003;62437;51.544;-3.276;2022-10-18T16:17:09;3;3;
74078;PMS5003;62437;51.544;-3.276;2022-10-18T16:19:33;4;3;
74078;PMS5003;62437;51.544;-3.276;2022-10-18T16:21:59;3;3;
74078;PMS5003;62437;51.544;-3.276;2022-10-18T16:24:25;4;3;
74078;PMS5003;62437;51.544;-3.276;2022-10-18T16:26:50;5;5;
74078;PMS5003;62437;51.544;-3.276;2022-10-18T16:29:17;5;3;
74078;PMS5003;62437;51.544;-3.276;2022-10-18T16:31:42;3;3;
74078;PMS5003;62437;51.544;-3.276;2022-10-18T16:34:07;3;3;
74078;PMS5003;62437;51.544;-3.276;2022-10-18T16:36:33;2;2;
74078;PMS5003;62437;51.544;-3.276;2022-10-18T16:39:00;7;5;
74078;PMS5003;62437;51.544;-3.276;2022-10-18T16:41:24;3;3;
74078;PMS5003;62437;51.544;-3.276;2022-10-18T16:43:50;3;3;
74078;PMS5003;62437;51.544;-3.276;2022-10-18T16:46:16;3;3;
74078;PMS5003;62437;51.544;-3.276;2022-10-18T16:48:41;4;4;
74078;PMS5003;62437;51.544;-3.276;2022-10-18T16:51:08;7;6;
74078;PMS5003;62437;51.544;-3.276;2022-10-18T16:53:32;5;4;
74078;PMS5003;62437;51.544;-3.276;2022-10-18T16:55:59;4;4;
74078;PMS5003;62437;51.544;-3.276;2022-10-18T16:58:24;6;5;
74078;PMS5003;62437;51.544;-3.276;2022-10-18T17:00:49;4;4;
74078;PMS5003;62437;51.544;-3.276;2022-10-18T17:03:15;4;3;
74078;PMS5003;62437;51.544;-3.276;2022-10-18T17:05:40;3;3;